Ashton, Idaho
Current Conditions -  °F | °C
As of 6:53 AM on Saturday 25 Oct 2014 (Local Time) from KRXE Reporting Station
Clear Clear  
Wind Chill: 30°   Ceiling: Unl
Heat Index: 34°   Visibility: 10mi
Dew Point: 27°   Wind: 5mph
Humidity: 75%   Direction: 50°NE
Pressure: 30.06"   Gusts: NA
Location:  44.07°N, 111.45°W
Report Text: KRXE 251253Z AUTO 05004KT 10SM CLR 01/M03 A3006 RMK AO2 SLP173 T00111028
Loading
Personal Weather Stations






























Interactive Weather Map
Tropical Storm Tracking
New forecast layout! Learn more

10-Day Weather Forecast

Advertisements
Track Severe Weather on mobile